Okolona, MS (38860)

4:44 AM CST on December 20, 2014 (GMT -0600)
RAWS HIGHWAY 41 MS US | Change Station
CLOSE
Current Station
Personal Weather Station
Location: Algoma, MS
Elevation: 319 ft
Nearby Weather Stations

Elev 319 ft 34.09 °N, 88.86 °W | Updated 52 minutes ago

Overcast
Overcast
36 °F
Feels Like 36 °F
N
0
Wind Variable Wind from North
Gusts 1.0 mph

Today
High -- | Low -- °F
--% Chance of Precip.
Yesterday
High -- | Low -- °F
Precip. -- in
6:56 AM 4:49 PM
Waning Crescent, 3% visible
Pressure 30.21 in
Visibility 4.0 miles
Clouds Few 10000 ft
Windchill 36 °F
Dew Point 35 °F
Humidity 98%
Rainfall 0.04 in
Snow Depth Not available.
UV 0 out of 12
Pollen .30 out of 12
Air Quality Not available.
Flu Activity Not available.
METAR KM40 201035Z AUTO 01004KT 4SM HZ FEW100 03/M04 A3021 RMK AO2

More Conditions Fewer Conditions

Pressure 30.21 in
Visibility 4.0 miles
Clouds Few 10000 ft
Windchill 36 °F
Dew Point 35 °F
Humidity 98%
Rainfall 0.04 in
Snow Depth Not available.
UV 0 out of 12
Pollen .30 out of 12
Air Quality Not available.
Flu Activity Not available.
METAR KM40 201035Z AUTO 01004KT 4SM HZ FEW100 03/M04 A3021 RMK AO2

More Conditions Fewer Conditions

10-Day Weather Forecast

Almanac

Astronomy

Dec. 20, 2014 Rise Set
Actual Time
Civil Twilight
Nautical Twilight
Astronomical Twilight
Moon
Length of Visible Light
Length of Day
Tomorrow will be .
, % of the Moon is Illuminated

Today's Extremes

State Highs State Lows

Community

WunderPhotos

Upload Photos

1,779,151 photos uploaded!

WunderBlogs® & News

Nearby

Air Quality

  Air Quality AQ Index Pollutant
Not available.

Snow Depth

Station Depth Elevation

Earthquake Activity

City Distance Mag. Time & Date
Minimum magnitude displayed is 2.5.

Coastal Water Temperatures

Place Temperature

Nearby Weather Stations